sensor_id;sensor_type;location;lat;lon;timestamp;P1;durP1;ratioP1;P2;durP2;ratioP2
77524;SDS011;66638;50.050;21.124;2023-04-21T00:03:11;15.80;;;8.90;;
77524;SDS011;66638;50.050;21.124;2023-04-21T00:05:58;19.40;;;9.70;;
77524;SDS011;66638;50.050;21.124;2023-04-21T00:08:47;17.30;;;9.60;;
77524;SDS011;66638;50.050;21.124;2023-04-21T00:11:35;20.00;;;9.60;;
77524;SDS011;66638;50.050;21.124;2023-04-21T00:14:23;17.80;;;10.20;;
77524;SDS011;66638;50.050;21.124;2023-04-21T00:17:10;19.90;;;10.00;;
77524;SDS011;66638;50.050;21.124;2023-04-21T00:19:57;18.40;;;9.70;;
77524;SDS011;66638;50.050;21.124;2023-04-21T00:25:31;14.60;;;9.60;;
77524;SDS011;66638;50.050;21.124;2023-04-21T00:28:18;15.20;;;8.70;;
77524;SDS011;66638;50.050;21.124;2023-04-21T00:31:06;15.70;;;9.00;;
77524;SDS011;66638;50.050;21.124;2023-04-21T00:33:53;17.00;;;8.40;;
77524;SDS011;66638;50.050;21.124;2023-04-21T00:36:42;20.40;;;9.40;;
77524;SDS011;66638;50.050;21.124;2023-04-21T00:39:29;16.30;;;8.60;;
77524;SDS011;66638;50.050;21.124;2023-04-21T00:42:16;15.50;;;9.60;;
77524;SDS011;66638;50.050;21.124;2023-04-21T00:45:04;16.10;;;8.10;;
77524;SDS011;66638;50.050;21.124;2023-04-21T00:47:51;16.50;;;8.90;;
77524;SDS011;66638;50.050;21.124;2023-04-21T00:50:39;18.70;;;9.50;;
77524;SDS011;66638;50.050;21.124;2023-04-21T00:53:26;18.50;;;8.80;;
77524;SDS011;66638;50.050;21.124;2023-04-21T00:56:15;18.10;;;9.90;;
77524;SDS011;66638;50.050;21.124;2023-04-21T00:59:03;17.70;;;9.10;;
77524;SDS011;66638;50.050;21.124;2023-04-21T01:01:50;17.60;;;9.10;;
77524;SDS011;66638;50.050;21.124;2023-04-21T01:04:38;14.40;;;8.70;;
77524;SDS011;66638;50.050;21.124;2023-04-21T01:07:26;18.30;;;9.10;;
77524;SDS011;66638;50.050;21.124;2023-04-21T01:10:16;14.50;;;8.50;;
77524;SDS011;66638;50.050;21.124;2023-04-21T01:13:05;15.10;;;10.00;;
77524;SDS011;66638;50.050;21.124;2023-04-21T01:15:53;18.80;;;9.90;;
77524;SDS011;66638;50.050;21.124;2023-04-21T01:18:40;17.60;;;9.50;;
77524;SDS011;66638;50.050;21.124;2023-04-21T01:21:27;16.80;;;9.20;;
77524;SDS011;66638;50.050;21.124;2023-04-21T01:24:15;18.40;;;9.90;;
77524;SDS011;66638;50.050;21.124;2023-04-21T01:27:07;15.60;;;8.90;;
77524;SDS011;66638;50.050;21.124;2023-04-21T01:29:56;18.30;;;9.90;;
77524;SDS011;66638;50.050;21.124;2023-04-21T01:32:44;17.80;;;8.70;;
77524;SDS011;66638;50.050;21.124;2023-04-21T01:35:31;17.20;;;9.80;;
77524;SDS011;66638;50.050;21.124;2023-04-21T01:41:05;14.00;;;8.90;;
77524;SDS011;66638;50.050;21.124;2023-04-21T01:43:53;19.00;;;9.30;;
77524;SDS011;66638;50.050;21.124;2023-04-21T01:49:27;15.00;;;8.60;;
77524;SDS011;66638;50.050;21.124;2023-04-21T01:52:14;16.40;;;9.70;;
77524;SDS011;66638;50.050;21.124;2023-04-21T01:55:01;15.60;;;9.30;;
77524;SDS011;66638;50.050;21.124;2023-04-21T01:57:49;16.70;;;9.90;;
77524;SDS011;66638;50.050;21.124;2023-04-21T02:00:36;16.80;;;8.50;;
77524;SDS011;66638;50.050;21.124;2023-04-21T02:03:24;19.90;;;9.00;;
77524;SDS011;66638;50.050;21.124;2023-04-21T02:06:11;17.50;;;7.50;;
77524;SDS011;66638;50.050;21.124;2023-04-21T02:09:00;17.70;;;8.60;;
77524;SDS011;66638;50.050;21.124;2023-04-21T02:11:51;20.00;;;7.60;;
77524;SDS011;66638;50.050;21.124;2023-04-21T02:17:28;17.20;;;8.40;;
77524;SDS011;66638;50.050;21.124;2023-04-21T02:20:16;14.60;;;8.60;;
77524;SDS011;66638;50.050;21.124;2023-04-21T02:23:04;13.30;;;8.40;;
77524;SDS011;66638;50.050;21.124;2023-04-21T02:28:38;14.90;;;8.20;;
77524;SDS011;66638;50.050;21.124;2023-04-21T02:31:25;13.70;;;8.90;;
77524;SDS011;66638;50.050;21.124;2023-04-21T02:34:12;14.20;;;8.70;;
77524;SDS011;66638;50.050;21.124;2023-04-21T02:36:59;17.10;;;9.30;;
77524;SDS011;66638;50.050;21.124;2023-04-21T02:39:47;17.00;;;7.70;;
77524;SDS011;66638;50.050;21.124;2023-04-21T02:42:34;16.10;;;8.70;;
77524;SDS011;66638;50.050;21.124;2023-04-21T02:48:08;18.30;;;8.10;;
77524;SDS011;66638;50.050;21.124;2023-04-21T02:50:55;11.20;;;7.80;;
77524;SDS011;66638;50.050;21.124;2023-04-21T02:53:42;13.50;;;8.40;;
77524;SDS011;66638;50.050;21.124;2023-04-21T02:56:30;13.70;;;8.30;;
77524;SDS011;66638;50.050;21.124;2023-04-21T03:02:04;15.80;;;8.70;;
77524;SDS011;66638;50.050;21.124;2023-04-21T03:07:38;19.00;;;8.80;;
77524;SDS011;66638;50.050;21.124;2023-04-21T03:10:25;15.70;;;9.10;;
77524;SDS011;66638;50.050;21.124;2023-04-21T03:13:15;17.60;;;9.30;;
77524;SDS011;66638;50.050;21.124;2023-04-21T03:16:02;15.30;;;8.80;;
77524;SDS011;66638;50.050;21.124;2023-04-21T03:18:50;16.60;;;8.80;;
77524;SDS011;66638;50.050;21.124;2023-04-21T03:21:38;15.40;;;9.30;;
77524;SDS011;66638;50.050;21.124;2023-04-21T03:27:13;16.60;;;9.10;;
77524;SDS011;66638;50.050;21.124;2023-04-21T03:32:48;17.90;;;9.00;;
77524;SDS011;66638;50.050;21.124;2023-04-21T03:35:36;16.90;;;9.80;;
77524;SDS011;66638;50.050;21.124;2023-04-21T03:38:23;15.50;;;9.30;;
77524;SDS011;66638;50.050;21.124;2023-04-21T03:41:10;17.00;;;9.90;;
77524;SDS011;66638;50.050;21.124;2023-04-21T03:46:44;14.20;;;8.80;;
77524;SDS011;66638;50.050;21.124;2023-04-21T03:49:35;15.70;;;8.80;;
77524;SDS011;66638;50.050;21.124;2023-04-21T03:52:22;18.00;;;8.70;;
77524;SDS011;66638;50.050;21.124;2023-04-21T03:55:09;17.30;;;9.70;;
77524;SDS011;66638;50.050;21.124;2023-04-21T03:57:57;15.80;;;8.90;;
77524;SDS011;66638;50.050;21.124;2023-04-21T04:00:44;15.10;;;8.70;;
77524;SDS011;66638;50.050;21.124;2023-04-21T04:03:31;15.30;;;9.70;;
77524;SDS011;66638;50.050;21.124;2023-04-21T04:06:20;16.30;;;10.60;;
77524;SDS011;66638;50.050;21.124;2023-04-21T04:09:07;17.20;;;9.70;;
77524;SDS011;66638;50.050;21.124;2023-04-21T04:11:54;14.00;;;9.40;;
77524;SDS011;66638;50.050;21.124;2023-04-21T04:14:41;13.50;;;9.10;;
77524;SDS011;66638;50.050;21.124;2023-04-21T04:20:16;17.80;;;10.30;;
77524;SDS011;66638;50.050;21.124;2023-04-21T04:23:03;16.70;;;9.50;;
77524;SDS011;66638;50.050;21.124;2023-04-21T04:25:51;16.30;;;10.60;;
77524;SDS011;66638;50.050;21.124;2023-04-21T04:28:38;18.00;;;10.50;;
77524;SDS011;66638;50.050;21.124;2023-04-21T04:31:28;16.80;;;11.40;;
77524;SDS011;66638;50.050;21.124;2023-04-21T04:34:16;20.70;;;11.90;;
77524;SDS011;66638;50.050;21.124;2023-04-21T04:37:04;19.30;;;10.70;;
77524;SDS011;66638;50.050;21.124;2023-04-21T04:39:52;18.40;;;11.80;;
77524;SDS011;66638;50.050;21.124;2023-04-21T04:42:41;18.00;;;11.10;;
77524;SDS011;66638;50.050;21.124;2023-04-21T04:45:29;15.60;;;9.80;;
77524;SDS011;66638;50.050;21.124;2023-04-21T04:48:19;15.90;;;10.60;;
77524;SDS011;66638;50.050;21.124;2023-04-21T04:51:06;17.40;;;10.00;;
77524;SDS011;66638;50.050;21.124;2023-04-21T04:54:00;15.50;;;9.50;;
77524;SDS011;66638;50.050;21.124;2023-04-21T04:56:47;17.20;;;10.30;;
77524;SDS011;66638;50.050;21.124;2023-04-21T04:59:35;19.60;;;10.30;;
77524;SDS011;66638;50.050;21.124;2023-04-21T05:02:22;20.30;;;10.20;;
77524;SDS011;66638;50.050;21.124;2023-04-21T05:05:09;19.30;;;12.30;;
77524;SDS011;66638;50.050;21.124;2023-04-21T05:07:57;24.70;;;14.50;;
77524;SDS011;66638;50.050;21.124;2023-04-21T05:10:44;24.70;;;15.40;;
77524;SDS011;66638;50.050;21.124;2023-04-21T05:13:31;21.80;;;14.30;;
77524;SDS011;66638;50.050;21.124;2023-04-21T05:16:20;19.60;;;13.00;;
77524;SDS011;66638;50.050;21.124;2023-04-21T05:19:07;21.30;;;13.20;;
77524;SDS011;66638;50.050;21.124;2023-04-21T05:21:57;24.50;;;11.50;;
77524;SDS011;66638;50.050;21.124;2023-04-21T05:24:47;19.50;;;12.00;;
77524;SDS011;66638;50.050;21.124;2023-04-21T05:27:36;18.60;;;12.50;;
77524;SDS011;66638;50.050;21.124;2023-04-21T05:30:25;22.20;;;11.90;;
77524;SDS011;66638;50.050;21.124;2023-04-21T05:33:12;15.50;;;11.10;;
77524;SDS011;66638;50.050;21.124;2023-04-21T05:36:00;14.50;;;9.60;;
77524;SDS011;66638;50.050;21.124;2023-04-21T05:38:48;24.40;;;12.40;;
77524;SDS011;66638;50.050;21.124;2023-04-21T05:41:37;13.80;;;9.70;;
77524;SDS011;66638;50.050;21.124;2023-04-21T05:44:24;21.10;;;11.60;;
77524;SDS011;66638;50.050;21.124;2023-04-21T05:47:11;17.40;;;10.50;;
77524;SDS011;66638;50.050;21.124;2023-04-21T05:49:59;15.90;;;10.20;;
77524;SDS011;66638;50.050;21.124;2023-04-21T05:52:48;12.30;;;8.50;;
77524;SDS011;66638;50.050;21.124;2023-04-21T05:55:36;16.20;;;9.40;;
77524;SDS011;66638;50.050;21.124;2023-04-21T05:58:52;13.40;;;9.30;;
77524;SDS011;66638;50.050;21.124;2023-04-21T06:01:47;12.10;;;9.00;;
77524;SDS011;66638;50.050;21.124;2023-04-21T06:04:42;14.40;;;9.60;;
77524;SDS011;66638;50.050;21.124;2023-04-21T06:07:40;15.50;;;10.20;;
77524;SDS011;66638;50.050;21.124;2023-04-21T06:10:46;11.90;;;9.00;;
77524;SDS011;66638;50.050;21.124;2023-04-21T06:14:00;11.80;;;8.50;;
77524;SDS011;66638;50.050;21.124;2023-04-21T06:17:19;12.80;;;8.40;;
77524;SDS011;66638;50.050;21.124;2023-04-21T06:20:15;12.40;;;7.60;;
77524;SDS011;66638;50.050;21.124;2023-04-21T06:23:03;11.00;;;8.10;;
77524;SDS011;66638;50.050;21.124;2023-04-21T06:25:57;10.50;;;8.70;;
77524;SDS011;66638;50.050;21.124;2023-04-21T06:28:49;12.90;;;8.40;;
77524;SDS011;66638;50.050;21.124;2023-04-21T06:31:38;12.90;;;7.90;;
77524;SDS011;66638;50.050;21.124;2023-04-21T06:34:25;8.50;;;7.30;;
77524;SDS011;66638;50.050;21.124;2023-04-21T06:37:12;12.80;;;8.30;;
77524;SDS011;66638;50.050;21.124;2023-04-21T06:40:00;10.30;;;7.20;;
77524;SDS011;66638;50.050;21.124;2023-04-21T06:42:48;14.90;;;8.40;;
77524;SDS011;66638;50.050;21.124;2023-04-21T06:45:36;10.60;;;7.50;;
77524;SDS011;66638;50.050;21.124;2023-04-21T06:48:24;15.90;;;8.30;;
77524;SDS011;66638;50.050;21.124;2023-04-21T06:51:15;10.00;;;8.40;;
77524;SDS011;66638;50.050;21.124;2023-04-21T06:54:02;11.10;;;8.90;;
77524;SDS011;66638;50.050;21.124;2023-04-21T06:56:49;11.90;;;8.80;;
77524;SDS011;66638;50.050;21.124;2023-04-21T06:59:36;10.80;;;8.10;;
77524;SDS011;66638;50.050;21.124;2023-04-21T07:02:24;11.60;;;9.30;;
77524;SDS011;66638;50.050;21.124;2023-04-21T07:05:12;10.80;;;8.30;;
77524;SDS011;66638;50.050;21.124;2023-04-21T07:08:00;10.50;;;9.30;;
77524;SDS011;66638;50.050;21.124;2023-04-21T07:10:47;13.50;;;9.60;;
77524;SDS011;66638;50.050;21.124;2023-04-21T07:13:35;12.20;;;8.60;;
77524;SDS011;66638;50.050;21.124;2023-04-21T07:16:22;11.90;;;9.00;;
77524;SDS011;66638;50.050;21.124;2023-04-21T07:19:10;11.50;;;8.00;;
77524;SDS011;66638;50.050;21.124;2023-04-21T07:21:57;11.80;;;9.00;;
77524;SDS011;66638;50.050;21.124;2023-04-21T07:24:45;10.20;;;7.60;;
77524;SDS011;66638;50.050;21.124;2023-04-21T07:27:32;10.60;;;8.50;;
77524;SDS011;66638;50.050;21.124;2023-04-21T07:30:20;13.90;;;8.00;;
77524;SDS011;66638;50.050;21.124;2023-04-21T07:33:07;9.00;;;7.40;;
77524;SDS011;66638;50.050;21.124;2023-04-21T07:35:55;9.70;;;7.80;;
77524;SDS011;66638;50.050;21.124;2023-04-21T07:38:43;9.10;;;7.50;;
77524;SDS011;66638;50.050;21.124;2023-04-21T07:41:30;10.00;;;7.60;;
77524;SDS011;66638;50.050;21.124;2023-04-21T07:44:17;9.20;;;7.70;;
77524;SDS011;66638;50.050;21.124;2023-04-21T07:47:05;9.50;;;7.20;;
77524;SDS011;66638;50.050;21.124;2023-04-21T07:49:52;9.80;;;6.80;;
77524;SDS011;66638;50.050;21.124;2023-04-21T07:52:41;10.00;;;7.10;;
77524;SDS011;66638;50.050;21.124;2023-04-21T07:55:31;8.50;;;6.30;;
77524;SDS011;66638;50.050;21.124;2023-04-21T07:58:19;7.50;;;6.70;;
77524;SDS011;66638;50.050;21.124;2023-04-21T08:01:07;9.10;;;6.60;;
77524;SDS011;66638;50.050;21.124;2023-04-21T08:03:54;7.50;;;6.60;;
77524;SDS011;66638;50.050;21.124;2023-04-21T08:06:41;10.10;;;7.00;;
77524;SDS011;66638;50.050;21.124;2023-04-21T08:09:28;8.10;;;6.60;;
77524;SDS011;66638;50.050;21.124;2023-04-21T08:12:15;7.40;;;6.60;;
77524;SDS011;66638;50.050;21.124;2023-04-21T08:15:02;11.00;;;7.50;;
77524;SDS011;66638;50.050;21.124;2023-04-21T08:17:53;7.50;;;6.30;;
77524;SDS011;66638;50.050;21.124;2023-04-21T08:20:40;9.00;;;7.10;;
77524;SDS011;66638;50.050;21.124;2023-04-21T08:23:28;8.50;;;6.80;;
77524;SDS011;66638;50.050;21.124;2023-04-21T08:26:18;6.70;;;5.80;;
77524;SDS011;66638;50.050;21.124;2023-04-21T08:29:07;8.20;;;6.30;;
77524;SDS011;66638;50.050;21.124;2023-04-21T08:31:56;7.80;;;6.20;;
77524;SDS011;66638;50.050;21.124;2023-04-21T08:34:43;10.40;;;7.00;;
77524;SDS011;66638;50.050;21.124;2023-04-21T08:37:30;8.40;;;7.00;;
77524;SDS011;66638;50.050;21.124;2023-04-21T08:40:18;6.80;;;5.50;;
77524;SDS011;66638;50.050;21.124;2023-04-21T08:43:05;6.80;;;5.70;;
77524;SDS011;66638;50.050;21.124;2023-04-21T08:45:54;6.90;;;5.10;;
77524;SDS011;66638;50.050;21.124;2023-04-21T08:48:41;5.70;;;5.10;;
77524;SDS011;66638;50.050;21.124;2023-04-21T08:51:29;6.50;;;5.00;;
77524;SDS011;66638;50.050;21.124;2023-04-21T08:54:17;6.10;;;4.70;;
77524;SDS011;66638;50.050;21.124;2023-04-21T08:57:04;4.90;;;4.10;;
77524;SDS011;66638;50.050;21.124;2023-04-21T08:59:52;7.60;;;4.30;;
77524;SDS011;66638;50.050;21.124;2023-04-21T09:05:55;8.70;;;4.70;;
77524;SDS011;66638;50.050;21.124;2023-04-21T09:08:51;7.40;;;4.50;;
77524;SDS011;66638;50.050;21.124;2023-04-21T09:11:41;5.00;;;4.50;;
77524;SDS011;66638;50.050;21.124;2023-04-21T09:14:31;6.80;;;4.30;;
77524;SDS011;66638;50.050;21.124;2023-04-21T09:20:11;5.30;;;3.80;;
77524;SDS011;66638;50.050;21.124;2023-04-21T09:23:04;5.30;;;4.20;;
77524;SDS011;66638;50.050;21.124;2023-04-21T09:25:52;7.70;;;4.60;;
77524;SDS011;66638;50.050;21.124;2023-04-21T09:28:40;5.50;;;3.50;;
77524;SDS011;66638;50.050;21.124;2023-04-21T09:31:29;4.90;;;3.70;;
77524;SDS011;66638;50.050;21.124;2023-04-21T09:34:22;4.30;;;3.60;;
77524;SDS011;66638;50.050;21.124;2023-04-21T09:37:13;5.50;;;4.20;;
77524;SDS011;66638;50.050;21.124;2023-04-21T09:40:00;5.20;;;3.70;;
77524;SDS011;66638;50.050;21.124;2023-04-21T09:42:47;5.40;;;3.30;;
77524;SDS011;66638;50.050;21.124;2023-04-21T09:45:36;5.70;;;3.40;;
77524;SDS011;66638;50.050;21.124;2023-04-21T09:48:29;5.10;;;3.10;;
77524;SDS011;66638;50.050;21.124;2023-04-21T09:51:18;4.60;;;3.60;;
77524;SDS011;66638;50.050;21.124;2023-04-21T09:54:14;5.30;;;3.90;;
77524;SDS011;66638;50.050;21.124;2023-04-21T09:57:03;6.00;;;3.90;;
77524;SDS011;66638;50.050;21.124;2023-04-21T09:59:53;7.50;;;4.70;;
77524;SDS011;66638;50.050;21.124;2023-04-21T10:02:49;5.90;;;3.70;;
77524;SDS011;66638;50.050;21.124;2023-04-21T10:05:37;7.30;;;4.30;;
77524;SDS011;66638;50.050;21.124;2023-04-21T10:08:24;5.50;;;3.40;;
77524;SDS011;66638;50.050;21.124;2023-04-21T10:11:12;5.10;;;3.40;;
77524;SDS011;66638;50.050;21.124;2023-04-21T10:14:01;5.20;;;3.50;;
77524;SDS011;66638;50.050;21.124;2023-04-21T10:16:56;6.10;;;3.80;;
77524;SDS011;66638;50.050;21.124;2023-04-21T10:19:55;6.30;;;3.80;;
77524;SDS011;66638;50.050;21.124;2023-04-21T10:22:43;5.40;;;3.60;;
77524;SDS011;66638;50.050;21.124;2023-04-21T10:25:30;4.40;;;3.10;;
77524;SDS011;66638;50.050;21.124;2023-04-21T10:28:19;5.90;;;3.30;;
77524;SDS011;66638;50.050;21.124;2023-04-21T10:34:28;5.20;;;3.30;;
77524;SDS011;66638;50.050;21.124;2023-04-21T10:37:22;5.30;;;3.60;;
77524;SDS011;66638;50.050;21.124;2023-04-21T10:46:39;5.00;;;3.60;;
77524;SDS011;66638;50.050;21.124;2023-04-21T10:49:28;7.20;;;3.60;;
77524;SDS011;66638;50.050;21.124;2023-04-21T10:52:16;6.10;;;3.60;;
77524;SDS011;66638;50.050;21.124;2023-04-21T10:55:07;6.00;;;3.30;;
77524;SDS011;66638;50.050;21.124;2023-04-21T10:58:00;5.60;;;3.40;;
77524;SDS011;66638;50.050;21.124;2023-04-21T11:00:51;5.00;;;3.30;;
77524;SDS011;66638;50.050;21.124;2023-04-21T11:03:41;4.70;;;3.00;;
77524;SDS011;66638;50.050;21.124;2023-04-21T11:06:29;5.80;;;3.20;;
77524;SDS011;66638;50.050;21.124;2023-04-21T11:09:16;7.60;;;3.80;;
77524;SDS011;66638;50.050;21.124;2023-04-21T11:12:05;5.70;;;3.70;;
77524;SDS011;66638;50.050;21.124;2023-04-21T11:14:55;6.00;;;4.00;;
77524;SDS011;66638;50.050;21.124;2023-04-21T11:17:44;6.10;;;3.40;;
77524;SDS011;66638;50.050;21.124;2023-04-21T11:20:32;6.20;;;4.20;;
77524;SDS011;66638;50.050;21.124;2023-04-21T11:23:20;6.30;;;3.50;;
77524;SDS011;66638;50.050;21.124;2023-04-21T11:26:07;7.80;;;3.80;;
77524;SDS011;66638;50.050;21.124;2023-04-21T11:28:54;6.30;;;3.50;;
77524;SDS011;66638;50.050;21.124;2023-04-21T11:31:42;6.00;;;3.80;;
77524;SDS011;66638;50.050;21.124;2023-04-21T11:34:31;5.80;;;3.50;;
77524;SDS011;66638;50.050;21.124;2023-04-21T11:37:23;5.60;;;3.40;;
77524;SDS011;66638;50.050;21.124;2023-04-21T11:40:12;6.20;;;3.50;;
77524;SDS011;66638;50.050;21.124;2023-04-21T11:43:00;6.10;;;3.60;;
77524;SDS011;66638;50.050;21.124;2023-04-21T11:45:49;9.00;;;3.90;;
77524;SDS011;66638;50.050;21.124;2023-04-21T11:48:37;5.60;;;3.50;;
77524;SDS011;66638;50.050;21.124;2023-04-21T11:51:24;5.20;;;3.60;;
77524;SDS011;66638;50.050;21.124;2023-04-21T11:54:14;5.00;;;3.80;;
77524;SDS011;66638;50.050;21.124;2023-04-21T11:57:04;5.10;;;3.40;;
77524;SDS011;66638;50.050;21.124;2023-04-21T11:59:52;8.70;;;3.50;;
77524;SDS011;66638;50.050;21.124;2023-04-21T12:02:39;7.30;;;3.80;;
77524;SDS011;66638;50.050;21.124;2023-04-21T12:05:33;4.80;;;3.60;;
77524;SDS011;66638;50.050;21.124;2023-04-21T12:08:21;5.20;;;3.00;;
77524;SDS011;66638;50.050;21.124;2023-04-21T12:11:08;5.80;;;3.60;;
77524;SDS011;66638;50.050;21.124;2023-04-21T12:13:57;5.20;;;3.70;;
77524;SDS011;66638;50.050;21.124;2023-04-21T12:16:49;6.20;;;3.90;;
77524;SDS011;66638;50.050;21.124;2023-04-21T12:19:39;5.50;;;3.60;;
77524;SDS011;66638;50.050;21.124;2023-04-21T12:22:28;6.50;;;4.00;;
77524;SDS011;66638;50.050;21.124;2023-04-21T12:25:15;6.10;;;3.90;;
77524;SDS011;66638;50.050;21.124;2023-04-21T12:28:03;12.70;;;4.20;;
77524;SDS011;66638;50.050;21.124;2023-04-21T12:30:54;5.60;;;3.60;;
77524;SDS011;66638;50.050;21.124;2023-04-21T12:33:42;6.50;;;3.80;;
77524;SDS011;66638;50.050;21.124;2023-04-21T12:36:29;5.90;;;4.20;;
77524;SDS011;66638;50.050;21.124;2023-04-21T12:39:16;5.80;;;3.60;;
77524;SDS011;66638;50.050;21.124;2023-04-21T12:42:04;7.10;;;4.20;;
77524;SDS011;66638;50.050;21.124;2023-04-21T12:44:52;6.10;;;3.80;;
77524;SDS011;66638;50.050;21.124;2023-04-21T12:47:39;7.20;;;3.70;;
77524;SDS011;66638;50.050;21.124;2023-04-21T12:50:28;6.00;;;3.80;;
77524;SDS011;66638;50.050;21.124;2023-04-21T12:53:14;7.20;;;3.30;;
77524;SDS011;66638;50.050;21.124;2023-04-21T12:56:03;6.00;;;3.60;;
77524;SDS011;66638;50.050;21.124;2023-04-21T12:58:52;7.00;;;3.40;;
77524;SDS011;66638;50.050;21.124;2023-04-21T13:01:44;4.60;;;3.50;;
77524;SDS011;66638;50.050;21.124;2023-04-21T13:04:32;5.40;;;3.50;;
77524;SDS011;66638;50.050;21.124;2023-04-21T13:07:19;5.50;;;3.30;;
77524;SDS011;66638;50.050;21.124;2023-04-21T13:10:09;4.90;;;3.10;;
77524;SDS011;66638;50.050;21.124;2023-04-21T13:12:57;6.40;;;3.30;;
77524;SDS011;66638;50.050;21.124;2023-04-21T13:15:44;4.50;;;3.30;;
77524;SDS011;66638;50.050;21.124;2023-04-21T13:18:32;6.40;;;3.40;;
77524;SDS011;66638;50.050;21.124;2023-04-21T13:21:20;5.10;;;3.30;;
77524;SDS011;66638;50.050;21.124;2023-04-21T13:24:07;6.10;;;2.90;;
77524;SDS011;66638;50.050;21.124;2023-04-21T13:26:54;5.10;;;3.60;;
77524;SDS011;66638;50.050;21.124;2023-04-21T13:29:43;4.30;;;3.30;;
77524;SDS011;66638;50.050;21.124;2023-04-21T13:32:30;4.70;;;3.50;;
77524;SDS011;66638;50.050;21.124;2023-04-21T13:35:17;4.90;;;3.20;;
77524;SDS011;66638;50.050;21.124;2023-04-21T13:38:04;5.50;;;3.40;;
77524;SDS011;66638;50.050;21.124;2023-04-21T13:40:52;7.50;;;3.00;;
77524;SDS011;66638;50.050;21.124;2023-04-21T13:43:39;4.50;;;3.10;;
77524;SDS011;66638;50.050;21.124;2023-04-21T13:46:27;6.30;;;3.20;;
77524;SDS011;66638;50.050;21.124;2023-04-21T13:49:14;4.10;;;3.00;;
77524;SDS011;66638;50.050;21.124;2023-04-21T13:52:02;4.90;;;3.30;;
77524;SDS011;66638;50.050;21.124;2023-04-21T13:54:50;5.30;;;3.10;;
77524;SDS011;66638;50.050;21.124;2023-04-21T13:57:38;4.50;;;2.60;;
77524;SDS011;66638;50.050;21.124;2023-04-21T14:00:25;4.30;;;3.20;;
77524;SDS011;66638;50.050;21.124;2023-04-21T14:03:13;7.20;;;3.80;;
77524;SDS011;66638;50.050;21.124;2023-04-21T14:06:00;4.60;;;2.80;;
77524;SDS011;66638;50.050;21.124;2023-04-21T14:08:48;3.60;;;2.60;;
77524;SDS011;66638;50.050;21.124;2023-04-21T14:11:35;7.60;;;3.40;;
77524;SDS011;66638;50.050;21.124;2023-04-21T14:14:22;6.70;;;2.80;;
77524;SDS011;66638;50.050;21.124;2023-04-21T14:17:10;5.30;;;2.80;;
77524;SDS011;66638;50.050;21.124;2023-04-21T14:19:57;4.70;;;3.00;;
77524;SDS011;66638;50.050;21.124;2023-04-21T14:22:44;5.00;;;3.40;;
77524;SDS011;66638;50.050;21.124;2023-04-21T14:25:31;5.40;;;2.90;;
77524;SDS011;66638;50.050;21.124;2023-04-21T14:28:19;4.50;;;3.10;;
77524;SDS011;66638;50.050;21.124;2023-04-21T14:31:06;3.90;;;3.10;;
77524;SDS011;66638;50.050;21.124;2023-04-21T14:33:54;12.10;;;4.60;;
77524;SDS011;66638;50.050;21.124;2023-04-21T14:36:41;5.70;;;3.60;;
77524;SDS011;66638;50.050;21.124;2023-04-21T14:39:29;5.80;;;3.00;;
77524;SDS011;66638;50.050;21.124;2023-04-21T14:42:18;4.60;;;2.70;;
77524;SDS011;66638;50.050;21.124;2023-04-21T14:45:06;6.70;;;3.00;;
77524;SDS011;66638;50.050;21.124;2023-04-21T14:47:54;4.90;;;2.40;;
77524;SDS011;66638;50.050;21.124;2023-04-21T14:50:41;3.80;;;2.70;;
77524;SDS011;66638;50.050;21.124;2023-04-21T14:53:28;5.90;;;2.80;;
77524;SDS011;66638;50.050;21.124;2023-04-21T14:56:15;5.80;;;3.00;;
77524;SDS011;66638;50.050;21.124;2023-04-21T14:59:03;4.70;;;2.80;;
77524;SDS011;66638;50.050;21.124;2023-04-21T15:01:50;5.40;;;2.50;;
77524;SDS011;66638;50.050;21.124;2023-04-21T15:04:37;5.00;;;2.70;;
77524;SDS011;66638;50.050;21.124;2023-04-21T15:07:24;3.60;;;2.50;;
77524;SDS011;66638;50.050;21.124;2023-04-21T15:10:12;4.90;;;3.20;;
77524;SDS011;66638;50.050;21.124;2023-04-21T15:12:59;8.40;;;2.70;;
77524;SDS011;66638;50.050;21.124;2023-04-21T15:15:46;4.90;;;2.70;;
77524;SDS011;66638;50.050;21.124;2023-04-21T15:18:34;5.80;;;2.70;;
77524;SDS011;66638;50.050;21.124;2023-04-21T15:21:21;7.90;;;3.20;;
77524;SDS011;66638;50.050;21.124;2023-04-21T15:24:09;4.30;;;3.00;;
77524;SDS011;66638;50.050;21.124;2023-04-21T15:26:56;5.20;;;3.20;;
77524;SDS011;66638;50.050;21.124;2023-04-21T15:29:44;5.30;;;3.40;;
77524;SDS011;66638;50.050;21.124;2023-04-21T15:32:31;4.00;;;2.90;;
77524;SDS011;66638;50.050;21.124;2023-04-21T15:35:18;5.20;;;3.30;;
77524;SDS011;66638;50.050;21.124;2023-04-21T15:38:05;4.80;;;3.20;;
77524;SDS011;66638;50.050;21.124;2023-04-21T15:40:52;5.70;;;3.30;;
77524;SDS011;66638;50.050;21.124;2023-04-21T15:43:40;5.40;;;2.90;;
77524;SDS011;66638;50.050;21.124;2023-04-21T15:46:27;5.20;;;3.10;;
77524;SDS011;66638;50.050;21.124;2023-04-21T15:49:14;5.10;;;3.10;;
77524;SDS011;66638;50.050;21.124;2023-04-21T15:52:02;5.00;;;3.90;;
77524;SDS011;66638;50.050;21.124;2023-04-21T15:54:53;5.70;;;3.40;;
77524;SDS011;66638;50.050;21.124;2023-04-21T15:57:40;5.30;;;3.90;;
77524;SDS011;66638;50.050;21.124;2023-04-21T16:00:27;6.10;;;3.20;;
77524;SDS011;66638;50.050;21.124;2023-04-21T16:03:15;4.90;;;3.10;;
77524;SDS011;66638;50.050;21.124;2023-04-21T16:06:02;5.10;;;3.10;;
77524;SDS011;66638;50.050;21.124;2023-04-21T16:08:49;6.60;;;3.40;;
77524;SDS011;66638;50.050;21.124;2023-04-21T16:11:37;5.10;;;3.30;;
77524;SDS011;66638;50.050;21.124;2023-04-21T16:14:24;5.30;;;3.50;;
77524;SDS011;66638;50.050;21.124;2023-04-21T16:17:11;7.20;;;4.60;;
77524;SDS011;66638;50.050;21.124;2023-04-21T16:19:58;15.60;;;13.90;;
77524;SDS011;66638;50.050;21.124;2023-04-21T16:22:49;6.70;;;5.00;;
77524;SDS011;66638;50.050;21.124;2023-04-21T16:25:37;6.00;;;3.60;;
77524;SDS011;66638;50.050;21.124;2023-04-21T16:28:25;5.00;;;2.90;;
77524;SDS011;66638;50.050;21.124;2023-04-21T16:31:12;5.60;;;4.00;;
77524;SDS011;66638;50.050;21.124;2023-04-21T16:33:59;5.90;;;3.20;;
77524;SDS011;66638;50.050;21.124;2023-04-21T16:36:47;4.40;;;3.00;;
77524;SDS011;66638;50.050;21.124;2023-04-21T16:39:34;6.00;;;4.20;;
77524;SDS011;66638;50.050;21.124;2023-04-21T16:42:21;6.40;;;4.00;;
77524;SDS011;66638;50.050;21.124;2023-04-21T16:45:09;7.70;;;5.00;;
77524;SDS011;66638;50.050;21.124;2023-04-21T16:47:57;6.40;;;3.90;;
77524;SDS011;66638;50.050;21.124;2023-04-21T16:50:44;4.20;;;3.30;;
77524;SDS011;66638;50.050;21.124;2023-04-21T16:53:31;4.60;;;2.80;;
77524;SDS011;66638;50.050;21.124;2023-04-21T16:56:19;4.90;;;3.30;;
77524;SDS011;66638;50.050;21.124;2023-04-21T16:59:07;5.70;;;3.10;;
77524;SDS011;66638;50.050;21.124;2023-04-21T17:01:55;7.50;;;3.50;;
77524;SDS011;66638;50.050;21.124;2023-04-21T17:04:42;6.00;;;3.00;;
77524;SDS011;66638;50.050;21.124;2023-04-21T17:07:29;5.90;;;3.50;;
77524;SDS011;66638;50.050;21.124;2023-04-21T17:10:17;8.30;;;5.60;;
77524;SDS011;66638;50.050;21.124;2023-04-21T17:13:05;5.50;;;4.00;;
77524;SDS011;66638;50.050;21.124;2023-04-21T17:15:56;9.20;;;5.50;;
77524;SDS011;66638;50.050;21.124;2023-04-21T17:18:43;14.60;;;8.50;;
77524;SDS011;66638;50.050;21.124;2023-04-21T17:21:31;23.80;;;12.80;;
77524;SDS011;66638;50.050;21.124;2023-04-21T17:24:19;28.60;;;18.50;;